Time,TemperatureF,DewpointF,PressureIn,WindDirection,WindDirectionDegrees,WindSpeedMPH,WindSpeedGustMPH,Humidity,HourlyPrecipIn,Conditions,Clouds,dailyrainin,SolarRadiationWatts/m^2,SoftwareType,DateUTC
2013-02-03 00:11:00,27.1,20.0,30.06,SSW,205,2.0,5.0,76,0.00,,,0.00,0,weatherlink.com 1.10,2013-02-03 05:11:00,
2013-02-03 00:27:00,26.8,20.0,30.05,SSW,207,3.0,5.0,76,0.00,,,0.00,0,weatherlink.com 1.10,2013-02-03 05:27:00,
2013-02-03 00:42:00,26.7,20.0,30.05,SSW,207,2.0,3.0,77,0.00,,,0.00,0,weatherlink.com 1.10,2013-02-03 05:42:00,
2013-02-03 00:59:00,26.6,20.0,30.03,SW,230,2.0,5.0,77,0.00,,,0.00,0,weatherlink.com 1.10,2013-02-03 05:59:00,
2013-02-03 01:12:00,26.5,21.0,30.03,SW,230,3.0,3.0,78,0.00,,,0.00,0,weatherlink.com 1.10,2013-02-03 06:12:00,
2013-02-03 01:27:00,26.4,20.0,30.02,SW,216,2.0,4.0,78,0.00,,,0.00,0,weatherlink.com 1.10,2013-02-03 06:27:00,
2013-02-03 01:42:00,26.3,20.0,30.03,SW,219,2.0,4.0,78,0.00,,,0.00,0,weatherlink.com 1.10,2013-02-03 06:42:00,
2013-02-03 01:57:00,26.3,20.0,30.03,SSW,211,0.0,2.0,78,0.00,,,0.00,0,weatherlink.com 1.10,2013-02-03 06:57:00,
2013-02-03 02:12:00,26.1,20.0,30.02,SSW,211,0.0,2.0,78,0.00,,,0.00,0,weatherlink.com 1.10,2013-02-03 07:12:00,
2013-02-03 02:27:00,26.1,20.0,30.01,SSW,213,2.0,4.0,78,0.00,,,0.00,0,weatherlink.com 1.10,2013-02-03 07:27:00,
2013-02-03 02:42:00,25.9,20.0,30.01,SW,217,0.0,4.0,78,0.00,,,0.00,0,weatherlink.com 1.10,2013-02-03 07:42:00,
2013-02-03 02:57:00,25.6,20.0,30.00,SW,217,0.0,3.0,78,0.00,,,0.00,0,weatherlink.com 1.10,2013-02-03 07:57:00,
2013-02-03 03:12:00,25.4,20.0,30.00,SW,217,1.0,2.0,79,0.00,,,0.00,0,weatherlink.com 1.10,2013-02-03 08:12:00,
2013-02-03 03:27:00,25.2,20.0,29.99,SW,217,0.0,2.0,79,0.00,,,0.00,0,weatherlink.com 1.10,2013-02-03 08:27:00,
2013-02-03 03:42:00,25.2,20.0,29.99,SW,217,0.0,2.0,79,0.00,,,0.00,0,weatherlink.com 1.10,2013-02-03 08:42:00,
2013-02-03 03:57:00,25.1,19.0,29.98,SW,217,0.0,2.0,79,0.00,,,0.00,0,weatherlink.com 1.10,2013-02-03 08:57:00,
2013-02-03 04:12:00,25.0,19.0,29.98,SW,217,0.0,2.0,79,0.00,,,0.00,0,weatherlink.com 1.10,2013-02-03 09:12:00,
2013-02-03 04:27:00,24.8,19.0,29.98,SW,217,0.0,2.0,79,0.00,,,0.00,0,weatherlink.com 1.10,2013-02-03 09:27:00,
2013-02-03 04:43:00,24.6,19.0,29.98,SW,217,1.0,2.0,79,0.00,,,0.00,0,weatherlink.com 1.10,2013-02-03 09:43:00,
2013-02-03 04:57:00,24.4,19.0,29.98,SW,217,0.0,1.0,79,0.00,,,0.00,0,weatherlink.com 1.10,2013-02-03 09:57:00,
2013-02-03 05:12:00,24.0,21.0,29.97,SW,217,0.0,2.0,87,0.00,,,0.00,0,weatherlink.com 1.10,2013-02-03 10:12:00,
2013-02-03 05:28:00,23.6,18.0,29.96,SW,217,0.0,1.0,80,0.00,,,0.00,0,weatherlink.com 1.10,2013-02-03 10:28:00,
2013-02-03 05:42:00,23.2,18.0,29.95,SW,217,0.0,2.0,80,0.00,,,0.00,0,weatherlink.com 1.10,2013-02-03 10:42:00,
2013-02-03 05:57:00,22.8,18.0,29.95,SW,217,0.0,3.0,81,0.00,,,0.00,0,weatherlink.com 1.10,2013-02-03 10:57:00,
2013-02-03 06:13:00,22.7,18.0,29.94,SW,215,1.0,4.0,82,0.00,,,0.00,0,weatherlink.com 1.10,2013-02-03 11:13:00,
2013-02-03 06:28:00,22.7,18.0,29.94,SW,215,0.0,2.0,82,0.00,,,0.00,0,weatherlink.com 1.10,2013-02-03 11:28:00,
2013-02-03 06:43:00,22.5,18.0,29.95,SW,215,0.0,1.0,82,0.00,,,0.00,0,weatherlink.com 1.10,2013-02-03 11:43:00,
2013-02-03 06:58:00,22.4,18.0,29.97,SW,215,0.0,0.0,82,0.00,,,0.00,0,weatherlink.com 1.10,2013-02-03 11:58:00,
2013-02-03 07:13:00,22.2,18.0,29.97,SW,215,0.0,2.0,83,0.00,,,0.00,11,weatherlink.com 1.10,2013-02-03 12:13:00,
2013-02-03 07:28:00,22.0,18.0,29.97,SW,215,0.0,2.0,83,0.00,,,0.00,25,weatherlink.com 1.10,2013-02-03 12:28:00,
2013-02-03 07:43:00,21.9,18.0,29.97,SW,215,0.0,2.0,83,0.00,,,0.00,39,weatherlink.com 1.10,2013-02-03 12:43:00,
2013-02-03 07:59:00,21.9,18.0,29.97,SW,215,0.0,2.0,84,0.00,,,0.00,54,weatherlink.com 1.10,2013-02-03 12:59:00,
2013-02-03 08:15:00,22.8,19.0,29.97,SW,215,0.0,1.0,85,0.00,,,0.00,63,weatherlink.com 1.10,2013-02-03 13:15:00,
2013-02-03 08:29:00,23.5,19.0,29.96,SW,215,1.0,2.0,84,0.00,,,0.00,67,weatherlink.com 1.10,2013-02-03 13:29:00,
2013-02-03 08:45:00,24.1,20.0,29.95,West,271,0.0,5.0,83,0.00,,,0.00,83,weatherlink.com 1.10,2013-02-03 13:45:00,
2013-02-03 08:59:00,24.6,20.0,29.95,WNW,294,3.0,4.0,82,0.00,,,0.00,113,weatherlink.com 1.10,2013-02-03 13:59:00,
2013-02-03 09:15:00,25.2,20.0,29.95,NW,304,4.0,9.0,80,0.00,,,0.00,128,weatherlink.com 1.10,2013-02-03 14:15:00,
2013-02-03 09:29:00,25.7,20.0,29.94,WSW,253,4.0,10.0,78,0.00,,,0.00,123,weatherlink.com 1.10,2013-02-03 14:29:00,
2013-02-03 09:45:00,26.4,20.0,29.93,West,268,4.0,5.0,77,0.00,,,0.00,116,weatherlink.com 1.10,2013-02-03 14:45:00,
2013-02-03 10:00:00,26.9,20.0,29.92,West,264,7.0,8.0,74,0.00,,,0.00,125,weatherlink.com 1.10,2013-02-03 15:00:00,
2013-02-03 10:14:00,27.1,20.0,29.91,West,273,4.0,8.0,74,0.00,,,0.00,156,weatherlink.com 1.10,2013-02-03 15:14:00,
2013-02-03 10:34:00,27.4,20.0,29.91,West,259,2.0,9.0,73,0.00,,,0.00,350,weatherlink.com 1.10,2013-02-03 15:34:00,
2013-02-03 10:45:00,28.5,21.0,29.91,West,265,1.0,8.0,72,0.00,,,0.00,417,weatherlink.com 1.10,2013-02-03 15:45:00,
2013-02-03 11:00:00,29.0,20.0,29.89,SW,225,2.0,6.0,70,0.00,,,0.00,415,weatherlink.com 1.10,2013-02-03 16:00:00,
2013-02-03 11:16:00,29.7,20.0,29.88,West,273,4.0,7.0,68,0.00,,,0.00,431,weatherlink.com 1.10,2013-02-03 16:16:00,
2013-02-03 11:31:00,29.9,20.0,29.87,South,182,0.0,6.0,67,0.00,,,0.00,473,weatherlink.com 1.10,2013-02-03 16:31:00,
2013-02-03 11:46:00,31.0,20.0,29.85,West,263,3.0,8.0,65,0.00,,,0.00,548,weatherlink.com 1.10,2013-02-03 16:46:00,
2013-02-03 12:01:00,30.8,20.0,29.84,West,265,0.0,7.0,64,0.00,,,0.00,483,weatherlink.com 1.10,2013-02-03 17:01:00,
2013-02-03 12:17:00,30.9,18.0,29.83,West,269,4.0,7.0,60,0.00,,,0.00,492,weatherlink.com 1.10,2013-02-03 17:17:00,
2013-02-03 12:32:00,31.6,18.0,29.82,WSW,255,5.0,8.0,58,0.00,,,0.00,513,weatherlink.com 1.10,2013-02-03 17:32:00,
2013-02-03 12:46:00,31.9,18.0,29.81,WNW,299,5.0,8.0,56,0.00,,,0.00,501,weatherlink.com 1.10,2013-02-03 17:46:00,
2013-02-03 13:02:00,32.4,19.0,29.81,WNW,302,5.0,6.0,57,0.00,,,0.00,508,weatherlink.com 1.10,2013-02-03 18:02:00,
2013-02-03 13:17:00,32.2,19.0,29.80,NW,313,1.0,10.0,58,0.00,,,0.00,443,weatherlink.com 1.10,2013-02-03 18:17:00,
2013-02-03 13:32:00,32.5,19.0,29.79,WNW,287,2.0,10.0,58,0.00,,,0.00,392,weatherlink.com 1.10,2013-02-03 18:32:00,
2013-02-03 13:47:00,33.7,18.0,29.78,WNW,291,7.0,8.0,54,0.00,,,0.00,406,weatherlink.com 1.10,2013-02-03 18:47:00,
2013-02-03 14:03:00,33.9,18.0,29.78,SSW,207,4.0,7.0,53,0.00,,,0.00,339,weatherlink.com 1.10,2013-02-03 19:03:00,
2013-02-03 14:18:00,34.0,19.0,29.77,SSW,205,2.0,4.0,54,0.00,,,0.00,294,weatherlink.com 1.10,2013-02-03 19:18:00,
2013-02-03 14:33:00,33.6,18.0,29.77,WSW,238,5.0,6.0,52,0.00,,,0.00,332,weatherlink.com 1.10,2013-02-03 19:33:00,
2013-02-03 14:48:00,33.3,17.0,29.77,SW,233,1.0,6.0,52,0.00,,,0.00,236,weatherlink.com 1.10,2013-02-03 19:48:00,
2013-02-03 15:03:00,33.8,18.0,29.76,SSW,198,0.0,6.0,53,0.00,,,0.00,211,weatherlink.com 1.10,2013-02-03 20:03:00,
2013-02-03 15:18:00,33.8,19.0,29.76,SSW,211,4.0,5.0,54,0.00,,,0.00,257,weatherlink.com 1.10,2013-02-03 20:18:00,
2013-02-03 15:35:00,33.6,18.0,29.75,SW,234,3.0,9.0,53,0.00,,,0.00,190,weatherlink.com 1.10,2013-02-03 20:35:00,
2013-02-03 15:49:00,33.3,17.0,29.75,NW,305,5.0,9.0,52,0.00,,,0.00,125,weatherlink.com 1.10,2013-02-03 20:49:00,
2013-02-03 16:05:00,33.3,18.0,29.75,NW,325,3.0,9.0,53,0.00,,,0.00,83,weatherlink.com 1.10,2013-02-03 21:05:00,
2013-02-03 16:19:00,33.1,18.0,29.74,WSW,252,4.0,8.0,55,0.00,,,0.00,56,weatherlink.com 1.10,2013-02-03 21:19:00,
2013-02-03 16:35:00,32.8,18.0,29.74,SW,220,3.0,10.0,55,0.00,,,0.00,26,weatherlink.com 1.10,2013-02-03 21:35:00,
2013-02-03 16:49:00,32.5,18.0,29.74,SW,225,4.0,7.0,55,0.00,,,0.00,14,weatherlink.com 1.10,2013-02-03 21:49:00,
2013-02-03 17:05:00,32.2,18.0,29.74,WSW,240,2.0,5.0,55,0.00,,,0.00,5,weatherlink.com 1.10,2013-02-03 22:05:00,
2013-02-03 17:19:00,31.9,18.0,29.74,WSW,240,1.0,4.0,57,0.00,,,0.00,0,weatherlink.com 1.10,2013-02-03 22:19:00,
2013-02-03 17:35:00,31.6,18.0,29.75,WSW,240,1.0,3.0,57,0.00,,,0.00,0,weatherlink.com 1.10,2013-02-03 22:35:00,
2013-02-03 17:50:00,31.4,18.0,29.75,WSW,240,2.0,3.0,58,0.00,,,0.00,0,weatherlink.com 1.10,2013-02-03 22:50:00,
2013-02-03 18:05:00,31.1,18.0,29.76,SSW,199,3.0,4.0,59,0.00,,,0.00,0,weatherlink.com 1.10,2013-02-03 23:05:00,
2013-02-03 18:20:00,30.9,18.0,29.77,SSW,207,2.0,7.0,59,0.00,,,0.00,0,weatherlink.com 1.10,2013-02-03 23:20:00,
2013-02-03 18:35:00,30.7,18.0,29.77,SSW,198,4.0,5.0,60,0.00,,,0.00,0,weatherlink.com 1.10,2013-02-03 23:35:00,
2013-02-03 18:50:00,30.4,18.0,29.77,SSW,206,1.0,3.0,60,0.00,,,0.00,0,weatherlink.com 1.10,2013-02-03 23:50:00,
2013-02-03 19:05:00,30.1,18.0,29.77,SSW,206,1.0,2.0,61,0.00,,,0.00,0,weatherlink.com 1.10,2013-02-04 00:05:00,
2013-02-03 19:21:00,29.8,18.0,29.76,SSW,206,1.0,2.0,62,0.00,,,0.00,0,weatherlink.com 1.10,2013-02-04 00:21:00,
2013-02-03 19:36:00,29.5,18.0,29.76,SSW,206,2.0,4.0,63,0.00,,,0.00,0,weatherlink.com 1.10,2013-02-04 00:36:00,
2013-02-03 19:51:00,29.1,18.0,29.76,SSW,206,0.0,1.0,64,0.00,,,0.00,0,weatherlink.com 1.10,2013-02-04 00:51:00,
2013-02-03 20:06:00,28.6,19.0,29.76,SSW,206,1.0,2.0,67,0.00,,,0.00,0,weatherlink.com 1.10,2013-02-04 01:06:00,
2013-02-03 20:20:00,28.0,19.0,29.76,SSW,206,2.0,2.0,70,0.00,,,0.00,0,weatherlink.com 1.10,2013-02-04 01:20:00,
2013-02-03 20:36:00,27.0,19.0,29.77,SSW,206,2.0,2.0,71,0.00,,,0.00,0,weatherlink.com 1.10,2013-02-04 01:36:00,
2013-02-03 20:50:00,26.8,19.0,29.76,SSW,206,1.0,2.0,72,0.00,,,0.00,0,weatherlink.com 1.10,2013-02-04 01:50:00,
2013-02-03 21:06:00,26.8,19.0,29.76,SSW,206,1.0,3.0,71,0.00,,,0.00,0,weatherlink.com 1.10,2013-02-04 02:06:00,
2013-02-03 21:22:00,26.9,18.0,29.76,SSW,206,2.0,3.0,70,0.00,,,0.00,0,weatherlink.com 1.10,2013-02-04 02:22:00,
2013-02-03 21:37:00,26.8,18.0,29.75,SSW,194,2.0,6.0,70,0.00,,,0.00,0,weatherlink.com 1.10,2013-02-04 02:37:00,
2013-02-03 21:52:00,26.5,18.0,29.76,SSW,196,3.0,3.0,70,0.00,,,0.00,0,weatherlink.com 1.10,2013-02-04 02:52:00,
2013-02-03 22:07:00,26.0,18.0,29.76,SSW,195,2.0,3.0,72,0.00,,,0.00,0,weatherlink.com 1.10,2013-02-04 03:07:00,
2013-02-03 22:21:00,25.6,18.0,29.77,SSW,195,2.0,4.0,72,0.00,,,0.00,0,weatherlink.com 1.10,2013-02-04 03:21:00,
2013-02-03 22:37:00,25.9,18.0,29.77,South,184,3.0,6.0,71,0.00,,,0.00,0,weatherlink.com 1.10,2013-02-04 03:37:00,
2013-02-03 22:52:00,26.0,17.0,29.76,SSW,192,2.0,5.0,70,0.00,,,0.00,0,weatherlink.com 1.10,2013-02-04 03:52:00,
2013-02-03 23:07:00,25.7,18.0,29.76,South,190,1.0,4.0,71,0.00,,,0.00,0,weatherlink.com 1.10,2013-02-04 04:07:00,
2013-02-03 23:22:00,25.1,17.0,29.76,SSW,202,0.0,4.0,72,0.00,,,0.00,0,weatherlink.com 1.10,2013-02-04 04:22:00,
2013-02-03 23:37:00,24.0,17.0,29.77,SSW,202,0.0,2.0,75,0.00,,,0.00,0,weatherlink.com 1.10,2013-02-04 04:37:00,
2013-02-03 23:53:00,23.5,17.0,29.77,SSW,202,2.0,2.0,76,0.00,,,0.00,0,weatherlink.com 1.10,2013-02-04 04:53:00,